sensor_id;sensor_type;location;lat;lon;timestamp;pressure;altitude;pressure_sealevel;temperature;humidity
77410;BME280;66481;51.332;22.804;2023-05-07T00:01:49;99956.25;;;4.13;97.45
77410;BME280;66481;51.332;22.804;2023-05-07T00:05:50;99951.88;;;4.14;96.32
77410;BME280;66481;51.332;22.804;2023-05-07T00:09:53;99961.66;;;4.10;98.08
77410;BME280;66481;51.332;22.804;2023-05-07T00:13:54;99953.78;;;4.10;96.77
77410;BME280;66481;51.332;22.804;2023-05-07T00:17:55;99944.28;;;4.08;96.67
77410;BME280;66481;51.332;22.804;2023-05-07T00:21:56;99948.69;;;4.07;97.67
77410;BME280;66481;51.332;22.804;2023-05-07T00:25:57;99968.72;;;4.08;97.55
77410;BME280;66481;51.332;22.804;2023-05-07T00:29:58;99967.00;;;4.07;97.21
77410;BME280;66481;51.332;22.804;2023-05-07T00:33:59;99964.50;;;4.04;96.52
77410;BME280;66481;51.332;22.804;2023-05-07T00:38:02;99962.72;;;4.05;96.52
77410;BME280;66481;51.332;22.804;2023-05-07T00:42:04;99956.78;;;4.01;98.04
77410;BME280;66481;51.332;22.804;2023-05-07T00:46:05;99950.75;;;3.99;96.83
77410;BME280;66481;51.332;22.804;2023-05-07T00:50:06;99959.47;;;4.00;96.91
77410;BME280;66481;51.332;22.804;2023-05-07T00:54:08;99946.66;;;3.93;96.73
77410;BME280;66481;51.332;22.804;2023-05-07T00:58:09;99950.81;;;3.98;96.58
77410;BME280;66481;51.332;22.804;2023-05-07T01:02:11;99954.38;;;3.97;96.64
77410;BME280;66481;51.332;22.804;2023-05-07T01:06:13;99957.06;;;3.95;96.87
77410;BME280;66481;51.332;22.804;2023-05-07T01:10:17;99972.75;;;3.95;96.39
77410;BME280;66481;51.332;22.804;2023-05-07T01:14:19;99947.50;;;3.94;96.18
77410;BME280;66481;51.332;22.804;2023-05-07T01:18:21;99978.91;;;3.94;96.27
77410;BME280;66481;51.332;22.804;2023-05-07T01:22:30;99977.22;;;3.93;96.72
77410;BME280;66481;51.332;22.804;2023-05-07T01:26:32;99971.13;;;3.92;96.46
77410;BME280;66481;51.332;22.804;2023-05-07T01:30:34;99965.03;;;3.92;96.65
77410;BME280;66481;51.332;22.804;2023-05-07T01:34:36;99957.13;;;3.93;96.21
77410;BME280;66481;51.332;22.804;2023-05-07T01:38:39;99968.56;;;3.91;96.21
77410;BME280;66481;51.332;22.804;2023-05-07T01:42:43;99983.47;;;3.89;95.89
77410;BME280;66481;51.332;22.804;2023-05-07T01:46:44;99970.34;;;3.90;96.20
77410;BME280;66481;51.332;22.804;2023-05-07T01:50:46;99973.00;;;3.89;96.33
77410;BME280;66481;51.332;22.804;2023-05-07T01:54:47;99974.00;;;3.86;96.20
77410;BME280;66481;51.332;22.804;2023-05-07T01:58:49;99964.56;;;3.82;95.49
77410;BME280;66481;51.332;22.804;2023-05-07T02:02:52;99971.50;;;3.83;96.33
77410;BME280;66481;51.332;22.804;2023-05-07T02:06:53;99966.34;;;3.82;96.20
77410;BME280;66481;51.332;22.804;2023-05-07T02:10:55;99951.63;;;3.79;96.48
77410;BME280;66481;51.332;22.804;2023-05-07T02:14:56;99975.97;;;3.81;96.52
77410;BME280;66481;51.332;22.804;2023-05-07T02:18:56;99983.81;;;3.81;95.68
77410;BME280;66481;51.332;22.804;2023-05-07T02:22:58;99972.47;;;3.81;96.60
77410;BME280;66481;51.332;22.804;2023-05-07T02:26:59;99975.19;;;3.79;96.72
77410;BME280;66481;51.332;22.804;2023-05-07T02:31:02;99969.13;;;3.77;97.00
77410;BME280;66481;51.332;22.804;2023-05-07T02:35:04;99970.97;;;3.75;97.48
77410;BME280;66481;51.332;22.804;2023-05-07T02:39:05;99971.84;;;3.75;97.36
77410;BME280;66481;51.332;22.804;2023-05-07T02:43:06;99982.38;;;3.74;97.16
77410;BME280;66481;51.332;22.804;2023-05-07T02:47:07;99987.59;;;3.74;96.10
77410;BME280;66481;51.332;22.804;2023-05-07T02:51:09;99966.72;;;3.72;95.73
77410;BME280;66481;51.332;22.804;2023-05-07T02:55:10;99998.25;;;3.69;96.58
77410;BME280;66481;51.332;22.804;2023-05-07T02:59:11;99990.22;;;3.74;97.07
77410;BME280;66481;51.332;22.804;2023-05-07T03:03:12;99983.22;;;3.74;97.51
77410;BME280;66481;51.332;22.804;2023-05-07T03:07:13;99993.84;;;3.70;97.60
77410;BME280;66481;51.332;22.804;2023-05-07T03:11:15;99994.97;;;3.64;97.25
77410;BME280;66481;51.332;22.804;2023-05-07T03:15:16;100004.72;;;3.61;98.07
77410;BME280;66481;51.332;22.804;2023-05-07T03:19:17;99986.50;;;3.57;97.55
77410;BME280;66481;51.332;22.804;2023-05-07T03:23:18;100009.28;;;3.55;97.27
77410;BME280;66481;51.332;22.804;2023-05-07T03:27:19;100011.94;;;3.54;97.49
77410;BME280;66481;51.332;22.804;2023-05-07T03:31:20;100008.56;;;3.52;97.57
77410;BME280;66481;51.332;22.804;2023-05-07T03:35:21;100015.41;;;3.54;97.81
77410;BME280;66481;51.332;22.804;2023-05-07T03:39:22;100027.81;;;3.49;97.57
77410;BME280;66481;51.332;22.804;2023-05-07T03:43:23;100032.94;;;3.52;97.52
77410;BME280;66481;51.332;22.804;2023-05-07T03:47:24;100032.94;;;3.52;98.47
77410;BME280;66481;51.332;22.804;2023-05-07T03:51:25;100029.38;;;3.55;99.05
77410;BME280;66481;51.332;22.804;2023-05-07T03:55:27;100038.91;;;3.56;98.47
77410;BME280;66481;51.332;22.804;2023-05-07T03:59:28;100023.25;;;3.54;98.17
77410;BME280;66481;51.332;22.804;2023-05-07T04:03:29;100039.84;;;3.55;98.81
77410;BME280;66481;51.332;22.804;2023-05-07T04:07:30;100039.09;;;3.51;98.82
77410;BME280;66481;51.332;22.804;2023-05-07T04:11:31;100059.00;;;3.55;99.03
77410;BME280;66481;51.332;22.804;2023-05-07T04:15:32;100052.97;;;3.53;99.30
77410;BME280;66481;51.332;22.804;2023-05-07T04:19:33;100059.09;;;3.52;99.42
77410;BME280;66481;51.332;22.804;2023-05-07T04:23:35;100057.47;;;3.50;100.00
77410;BME280;66481;51.332;22.804;2023-05-07T04:27:37;100055.88;;;3.46;99.12
77410;BME280;66481;51.332;22.804;2023-05-07T04:31:38;100070.72;;;3.45;99.89
77410;BME280;66481;51.332;22.804;2023-05-07T04:35:39;100092.50;;;3.46;98.74
77410;BME280;66481;51.332;22.804;2023-05-07T04:39:40;100077.59;;;3.48;99.53
77410;BME280;66481;51.332;22.804;2023-05-07T04:43:41;100078.34;;;3.51;98.80
77410;BME280;66481;51.332;22.804;2023-05-07T04:47:43;100079.25;;;3.50;98.30
77410;BME280;66481;51.332;22.804;2023-05-07T04:51:44;100079.13;;;3.53;98.80
77410;BME280;66481;51.332;22.804;2023-05-07T04:55:45;100088.66;;;3.54;98.55
77410;BME280;66481;51.332;22.804;2023-05-07T04:59:46;100104.31;;;3.56;98.33
77410;BME280;66481;51.332;22.804;2023-05-07T05:03:47;100099.03;;;3.57;97.61
77410;BME280;66481;51.332;22.804;2023-05-07T05:07:50;100074.50;;;3.60;98.40
77410;BME280;66481;51.332;22.804;2023-05-07T05:11:52;100092.00;;;3.58;98.48
77410;BME280;66481;51.332;22.804;2023-05-07T05:15:53;100092.88;;;3.58;98.17
77410;BME280;66481;51.332;22.804;2023-05-07T05:19:54;100099.75;;;3.61;98.36
77410;BME280;66481;51.332;22.804;2023-05-07T05:23:55;100099.59;;;3.66;98.38
77410;BME280;66481;51.332;22.804;2023-05-07T05:27:56;100098.66;;;3.67;98.39
77410;BME280;66481;51.332;22.804;2023-05-07T05:31:57;100103.88;;;3.67;98.00
77410;BME280;66481;51.332;22.804;2023-05-07T05:35:59;100105.50;;;3.71;97.57
77410;BME280;66481;51.332;22.804;2023-05-07T05:40:00;100109.63;;;3.76;96.85
77410;BME280;66481;51.332;22.804;2023-05-07T05:44:01;100118.31;;;3.77;96.68
77410;BME280;66481;51.332;22.804;2023-05-07T05:48:02;100098.97;;;3.81;95.95
77410;BME280;66481;51.332;22.804;2023-05-07T05:52:04;100127.72;;;3.83;96.02
77410;BME280;66481;51.332;22.804;2023-05-07T05:56:05;100120.59;;;3.86;95.64
77410;BME280;66481;51.332;22.804;2023-05-07T06:00:07;100124.84;;;3.89;95.39
77410;BME280;66481;51.332;22.804;2023-05-07T06:04:12;100115.97;;;3.93;95.69
77410;BME280;66481;51.332;22.804;2023-05-07T06:08:13;100127.19;;;3.97;94.80
77410;BME280;66481;51.332;22.804;2023-05-07T06:12:14;100132.03;;;4.06;93.69
77410;BME280;66481;51.332;22.804;2023-05-07T06:16:16;100135.38;;;4.09;94.07
77410;BME280;66481;51.332;22.804;2023-05-07T06:20:17;100143.84;;;4.16;94.13
77410;BME280;66481;51.332;22.804;2023-05-07T06:24:19;100138.59;;;4.16;93.18
77410;BME280;66481;51.332;22.804;2023-05-07T06:28:21;100133.97;;;4.23;93.68
77410;BME280;66481;51.332;22.804;2023-05-07T06:32:22;100130.63;;;4.19;93.59
77410;BME280;66481;51.332;22.804;2023-05-07T06:36:26;100141.66;;;4.27;93.51
77410;BME280;66481;51.332;22.804;2023-05-07T06:40:28;100155.66;;;4.26;93.27
77410;BME280;66481;51.332;22.804;2023-05-07T06:44:30;100161.78;;;4.25;92.34
77410;BME280;66481;51.332;22.804;2023-05-07T06:48:35;100152.72;;;4.34;94.43
77410;BME280;66481;51.332;22.804;2023-05-07T06:52:36;100169.16;;;4.38;94.26
77410;BME280;66481;51.332;22.804;2023-05-07T06:56:38;100177.88;;;4.38;92.59
77410;BME280;66481;51.332;22.804;2023-05-07T07:00:39;100172.38;;;4.44;93.91
77410;BME280;66481;51.332;22.804;2023-05-07T07:04:41;100178.16;;;4.52;92.91
77410;BME280;66481;51.332;22.804;2023-05-07T07:08:43;100184.25;;;4.53;93.19
77410;BME280;66481;51.332;22.804;2023-05-07T07:12:45;100187.59;;;4.57;92.54
77410;BME280;66481;51.332;22.804;2023-05-07T07:16:46;100188.47;;;4.57;92.45
77410;BME280;66481;51.332;22.804;2023-05-07T07:20:47;100196.13;;;4.62;92.47
77410;BME280;66481;51.332;22.804;2023-05-07T07:24:49;100190.63;;;4.68;92.89
77410;BME280;66481;51.332;22.804;2023-05-07T07:28:52;100195.03;;;4.67;91.97
77410;BME280;66481;51.332;22.804;2023-05-07T07:38:14;100217.97;;;4.62;91.56
77410;BME280;66481;51.332;22.804;2023-05-07T07:42:16;100244.56;;;4.74;93.11
77410;BME280;66481;51.332;22.804;2023-05-07T07:46:17;100233.97;;;4.77;91.99
77410;BME280;66481;51.332;22.804;2023-05-07T07:50:19;100222.69;;;4.75;91.77
77410;BME280;66481;51.332;22.804;2023-05-07T07:54:20;100231.94;;;4.83;92.14
77410;BME280;66481;51.332;22.804;2023-05-07T07:58:21;100226.59;;;4.86;91.41
77410;BME280;66481;51.332;22.804;2023-05-07T08:02:22;100239.94;;;4.80;92.02
77410;BME280;66481;51.332;22.804;2023-05-07T08:06:24;100239.28;;;4.75;92.26
77410;BME280;66481;51.332;22.804;2023-05-07T08:10:28;100233.97;;;4.77;91.42
77410;BME280;66481;51.332;22.804;2023-05-07T08:14:29;100245.19;;;4.80;92.01
77410;BME280;66481;51.332;22.804;2023-05-07T08:18:31;100241.31;;;4.89;91.45
77410;BME280;66481;51.332;22.804;2023-05-07T08:22:37;100241.84;;;4.97;90.39
77410;BME280;66481;51.332;22.804;2023-05-07T08:26:39;100254.69;;;5.03;89.40
77410;BME280;66481;51.332;22.804;2023-05-07T08:30:43;100253.13;;;4.99;92.74
77410;BME280;66481;51.332;22.804;2023-05-07T08:34:45;100270.81;;;4.94;93.51
77410;BME280;66481;51.332;22.804;2023-05-07T08:38:47;100258.22;;;4.82;93.00
77410;BME280;66481;51.332;22.804;2023-05-07T08:42:49;100275.31;;;4.70;94.28
77410;BME280;66481;51.332;22.804;2023-05-07T08:46:53;100280.88;;;4.62;94.22
77410;BME280;66481;51.332;22.804;2023-05-07T08:50:58;100295.72;;;4.62;93.71
77410;BME280;66481;51.332;22.804;2023-05-07T08:55:02;100297.59;;;4.58;94.14
77410;BME280;66481;51.332;22.804;2023-05-07T08:59:03;100302.72;;;4.61;94.25
77410;BME280;66481;51.332;22.804;2023-05-07T09:03:05;100285.44;;;4.57;94.78
77410;BME280;66481;51.332;22.804;2023-05-07T09:07:06;100306.94;;;4.65;94.20
77410;BME280;66481;51.332;22.804;2023-05-07T09:11:07;100308.75;;;4.63;93.81
77410;BME280;66481;51.332;22.804;2023-05-07T09:15:09;100306.38;;;4.79;94.00
77410;BME280;66481;51.332;22.804;2023-05-07T09:19:10;100313.28;;;4.82;91.67
77410;BME280;66481;51.332;22.804;2023-05-07T09:23:11;100309.75;;;4.83;92.26
77410;BME280;66481;51.332;22.804;2023-05-07T09:27:14;100310.28;;;4.91;93.22
77410;BME280;66481;51.332;22.804;2023-05-07T09:31:16;100315.72;;;4.86;91.70
77410;BME280;66481;51.332;22.804;2023-05-07T09:35:17;100313.09;;;4.86;92.16
77410;BME280;66481;51.332;22.804;2023-05-07T09:39:19;100325.22;;;4.89;91.91
77410;BME280;66481;51.332;22.804;2023-05-07T09:43:20;100339.19;;;4.89;92.51
77410;BME280;66481;51.332;22.804;2023-05-07T09:47:24;100331.03;;;4.97;92.22
77410;BME280;66481;51.332;22.804;2023-05-07T09:51:29;100334.81;;;4.90;90.51
77410;BME280;66481;51.332;22.804;2023-05-07T09:55:31;100344.97;;;4.98;91.14
77410;BME280;66481;51.332;22.804;2023-05-07T09:59:33;100338.63;;;5.03;89.96
77410;BME280;66481;51.332;22.804;2023-05-07T10:03:36;100324.22;;;5.14;90.94
77410;BME280;66481;51.332;22.804;2023-05-07T10:07:37;100325.53;;;5.24;89.05
77410;BME280;66481;51.332;22.804;2023-05-07T10:11:39;100347.34;;;5.26;88.14
77410;BME280;66481;51.332;22.804;2023-05-07T10:15:41;100334.06;;;5.29;88.78
77410;BME280;66481;51.332;22.804;2023-05-07T10:19:44;100341.03;;;5.30;88.52
77410;BME280;66481;51.332;22.804;2023-05-07T10:23:49;100355.28;;;5.24;87.58
77410;BME280;66481;51.332;22.804;2023-05-07T10:27:52;100370.75;;;5.31;86.85
77410;BME280;66481;51.332;22.804;2023-05-07T10:32:16;100369.50;;;5.39;88.39
77410;BME280;66481;51.332;22.804;2023-05-07T10:36:22;100381.59;;;5.43;86.76
77410;BME280;66481;51.332;22.804;2023-05-07T10:40:24;100380.66;;;5.44;86.11
77410;BME280;66481;51.332;22.804;2023-05-07T11:00:03;100409.63;;;5.63;86.63
77410;BME280;66481;51.332;22.804;2023-05-07T11:04:15;100413.56;;;5.53;86.03
77410;BME280;66481;51.332;22.804;2023-05-07T11:08:15;100422.88;;;5.40;86.45
77410;BME280;66481;51.332;22.804;2023-05-07T11:12:17;100418.66;;;5.36;86.04
77410;BME280;66481;51.332;22.804;2023-05-07T11:16:24;100438.69;;;5.38;86.38
77410;BME280;66481;51.332;22.804;2023-05-07T11:20:52;100436.50;;;5.48;85.59
77410;BME280;66481;51.332;22.804;2023-05-07T11:24:54;100442.69;;;5.47;83.71
77410;BME280;66481;51.332;22.804;2023-05-07T11:28:55;100430.47;;;5.46;83.78
77410;BME280;66481;51.332;22.804;2023-05-07T11:32:58;100427.41;;;5.57;84.08
77410;BME280;66481;51.332;22.804;2023-05-07T11:37:00;100447.22;;;5.43;86.30
77410;BME280;66481;51.332;22.804;2023-05-07T11:41:03;100457.94;;;5.37;87.18
77410;BME280;66481;51.332;22.804;2023-05-07T11:45:07;100436.97;;;5.37;85.46
77410;BME280;66481;51.332;22.804;2023-05-07T11:49:08;100438.78;;;5.35;85.02
77410;BME280;66481;51.332;22.804;2023-05-07T11:53:13;100456.50;;;5.52;85.45
77410;BME280;66481;51.332;22.804;2023-05-07T11:57:14;100451.41;;;5.47;83.90
77410;BME280;66481;51.332;22.804;2023-05-07T12:01:16;100453.59;;;5.58;83.37
77410;BME280;66481;51.332;22.804;2023-05-07T12:05:17;100455.09;;;5.64;84.65
77410;BME280;66481;51.332;22.804;2023-05-07T12:09:18;100458.19;;;5.53;84.30
77410;BME280;66481;51.332;22.804;2023-05-07T12:13:22;100460.75;;;5.55;82.98
77410;BME280;66481;51.332;22.804;2023-05-07T12:17:24;100480.66;;;5.81;83.98
77410;BME280;66481;51.332;22.804;2023-05-07T12:21:26;100464.31;;;6.17;83.69
77410;BME280;66481;51.332;22.804;2023-05-07T12:25:49;100477.13;;;6.04;83.04
77410;BME280;66481;51.332;22.804;2023-05-07T12:29:51;100485.19;;;5.99;82.97
77410;BME280;66481;51.332;22.804;2023-05-07T12:33:52;100481.13;;;6.13;82.48
77410;BME280;66481;51.332;22.804;2023-05-07T12:37:58;100480.31;;;6.11;81.68
77410;BME280;66481;51.332;22.804;2023-05-07T12:42:00;100482.13;;;5.88;82.16
77410;BME280;66481;51.332;22.804;2023-05-07T12:46:06;100500.16;;;5.75;81.93
77410;BME280;66481;51.332;22.804;2023-05-07T12:50:08;100485.66;;;5.67;82.39
77410;BME280;66481;51.332;22.804;2023-05-07T12:54:10;100489.72;;;5.74;81.99
77410;BME280;66481;51.332;22.804;2023-05-07T13:03:48;100486.59;;;5.86;82.41
77410;BME280;66481;51.332;22.804;2023-05-07T13:07:56;100485.91;;;5.81;82.36
77410;BME280;66481;51.332;22.804;2023-05-07T13:11:58;100504.00;;;5.89;83.32
77410;BME280;66481;51.332;22.804;2023-05-07T13:16:05;100496.66;;;5.97;84.35
77410;BME280;66481;51.332;22.804;2023-05-07T13:20:10;100491.78;;;5.88;85.62
77410;BME280;66481;51.332;22.804;2023-05-07T13:24:12;100509.81;;;5.75;83.81
77410;BME280;66481;51.332;22.804;2023-05-07T13:28:14;100506.78;;;5.63;83.48
77410;BME280;66481;51.332;22.804;2023-05-07T13:32:17;100520.84;;;5.83;82.21
77410;BME280;66481;51.332;22.804;2023-05-07T13:36:18;100515.41;;;5.88;82.15
77410;BME280;66481;51.332;22.804;2023-05-07T13:40:22;100516.66;;;5.79;82.73
77410;BME280;66481;51.332;22.804;2023-05-07T13:44:26;100520.19;;;5.78;83.88
77410;BME280;66481;51.332;22.804;2023-05-07T13:48:28;100502.69;;;5.78;82.70
77410;BME280;66481;51.332;22.804;2023-05-07T13:52:30;100507.94;;;6.00;82.45
77410;BME280;66481;51.332;22.804;2023-05-07T13:56:32;100506.34;;;6.17;80.99
77410;BME280;66481;51.332;22.804;2023-05-07T14:00:34;100515.53;;;6.07;81.68
77410;BME280;66481;51.332;22.804;2023-05-07T14:04:38;100515.81;;;6.00;80.98
77410;BME280;66481;51.332;22.804;2023-05-07T14:08:41;100497.88;;;6.10;80.98
77410;BME280;66481;51.332;22.804;2023-05-07T14:12:44;100512.13;;;6.25;80.21
77410;BME280;66481;51.332;22.804;2023-05-07T14:16:47;100516.47;;;6.06;81.66
77410;BME280;66481;51.332;22.804;2023-05-07T14:20:49;100525.50;;;5.98;84.16
77410;BME280;66481;51.332;22.804;2023-05-07T14:24:53;100537.16;;;5.91;82.72
77410;BME280;66481;51.332;22.804;2023-05-07T14:28:54;100539.00;;;5.89;81.22
77410;BME280;66481;51.332;22.804;2023-05-07T14:32:58;100549.09;;;6.00;82.18
77410;BME280;66481;51.332;22.804;2023-05-07T14:37:00;100540.31;;;6.01;82.57
77410;BME280;66481;51.332;22.804;2023-05-07T14:41:02;100555.13;;;6.02;82.51
77410;BME280;66481;51.332;22.804;2023-05-07T14:45:04;100553.78;;;5.92;83.29
77410;BME280;66481;51.332;22.804;2023-05-07T14:49:06;100566.09;;;5.90;80.97
77410;BME280;66481;51.332;22.804;2023-05-07T14:53:10;100568.00;;;5.86;83.58
77410;BME280;66481;51.332;22.804;2023-05-07T14:57:13;100572.66;;;5.79;82.05
77410;BME280;66481;51.332;22.804;2023-05-07T15:01:17;100584.13;;;5.77;83.15
77410;BME280;66481;51.332;22.804;2023-05-07T15:05:18;100583.97;;;5.81;84.11
77410;BME280;66481;51.332;22.804;2023-05-07T15:09:20;100578.44;;;5.88;83.00
77410;BME280;66481;51.332;22.804;2023-05-07T15:13:22;100578.16;;;5.95;80.64
77410;BME280;66481;51.332;22.804;2023-05-07T15:17:24;100581.56;;;5.99;82.01
77410;BME280;66481;51.332;22.804;2023-05-07T15:21:25;100585.81;;;6.01;81.44
77410;BME280;66481;51.332;22.804;2023-05-07T15:25:28;100590.56;;;5.92;81.21
77410;BME280;66481;51.332;22.804;2023-05-07T15:29:29;100598.69;;;5.86;81.43
77410;BME280;66481;51.332;22.804;2023-05-07T15:33:30;100592.75;;;5.80;81.50
77410;BME280;66481;51.332;22.804;2023-05-07T15:37:32;100602.47;;;5.78;80.32
77410;BME280;66481;51.332;22.804;2023-05-07T15:41:34;100595.31;;;5.82;81.28
77410;BME280;66481;51.332;22.804;2023-05-07T15:45:42;100606.06;;;5.76;80.86
77410;BME280;66481;51.332;22.804;2023-05-07T15:49:43;100602.59;;;5.75;82.04
77410;BME280;66481;51.332;22.804;2023-05-07T15:53:44;100613.19;;;5.72;82.50
77410;BME280;66481;51.332;22.804;2023-05-07T15:57:46;100621.75;;;5.77;82.49
77410;BME280;66481;51.332;22.804;2023-05-07T16:01:47;100628.91;;;5.74;82.73
77410;BME280;66481;51.332;22.804;2023-05-07T16:05:49;100628.16;;;5.70;82.75
77410;BME280;66481;51.332;22.804;2023-05-07T16:09:51;100636.16;;;5.67;83.01
77410;BME280;66481;51.332;22.804;2023-05-07T16:13:52;100628.69;;;5.56;83.58
77410;BME280;66481;51.332;22.804;2023-05-07T16:17:53;100625.91;;;5.61;82.42
77410;BME280;66481;51.332;22.804;2023-05-07T16:21:57;100627.53;;;5.63;82.25
77410;BME280;66481;51.332;22.804;2023-05-07T16:25:59;100635.19;;;5.70;83.32
77410;BME280;66481;51.332;22.804;2023-05-07T16:30:00;100648.66;;;5.60;81.46
77410;BME280;66481;51.332;22.804;2023-05-07T16:34:02;100633.16;;;5.54;82.79
77410;BME280;66481;51.332;22.804;2023-05-07T16:38:05;100641.94;;;5.53;83.38
77410;BME280;66481;51.332;22.804;2023-05-07T16:42:10;100647.13;;;5.55;82.98
77410;BME280;66481;51.332;22.804;2023-05-07T16:46:12;100644.50;;;5.55;82.52
77410;BME280;66481;51.332;22.804;2023-05-07T16:50:15;100651.84;;;5.45;81.58
77410;BME280;66481;51.332;22.804;2023-05-07T16:54:16;100663.44;;;5.39;82.28
77410;BME280;66481;51.332;22.804;2023-05-07T16:58:17;100660.13;;;5.34;83.79
77410;BME280;66481;51.332;22.804;2023-05-07T17:02:19;100662.31;;;5.23;83.57
77410;BME280;66481;51.332;22.804;2023-05-07T17:06:23;100674.50;;;5.24;83.36
77410;BME280;66481;51.332;22.804;2023-05-07T17:10:25;100670.97;;;5.25;83.40
77410;BME280;66481;51.332;22.804;2023-05-07T17:14:27;100670.97;;;5.25;81.67
77410;BME280;66481;51.332;22.804;2023-05-07T17:18:29;100677.25;;;5.21;82.46
77410;BME280;66481;51.332;22.804;2023-05-07T17:22:31;100678.22;;;5.18;81.61
77410;BME280;66481;51.332;22.804;2023-05-07T17:26:34;100677.41;;;5.16;81.61
77410;BME280;66481;51.332;22.804;2023-05-07T17:30:39;100679.28;;;5.13;81.37
77410;BME280;66481;51.332;22.804;2023-05-07T17:34:41;100691.53;;;5.12;82.74
77410;BME280;66481;51.332;22.804;2023-05-07T17:38:42;100696.97;;;5.07;82.48
77410;BME280;66481;51.332;22.804;2023-05-07T17:42:45;100691.78;;;5.06;83.71
77410;BME280;66481;51.332;22.804;2023-05-07T17:46:47;100703.28;;;5.02;83.97
77410;BME280;66481;51.332;22.804;2023-05-07T17:50:48;100698.94;;;5.01;84.38
77410;BME280;66481;51.332;22.804;2023-05-07T17:54:49;100702.78;;;4.90;85.47
77410;BME280;66481;51.332;22.804;2023-05-07T17:58:52;100705.13;;;4.73;86.56
77410;BME280;66481;51.332;22.804;2023-05-07T18:02:54;100703.84;;;4.58;87.67
77410;BME280;66481;51.332;22.804;2023-05-07T18:06:57;100707.88;;;4.68;86.86
77410;BME280;66481;51.332;22.804;2023-05-07T18:10:59;100709.81;;;4.63;87.03
77410;BME280;66481;51.332;22.804;2023-05-07T18:15:01;100716.47;;;4.47;87.75
77410;BME280;66481;51.332;22.804;2023-05-07T18:19:02;100726.94;;;4.19;88.70
77410;BME280;66481;51.332;22.804;2023-05-07T18:23:04;100724.88;;;4.02;89.31
77410;BME280;66481;51.332;22.804;2023-05-07T18:27:05;100731.19;;;3.94;89.12
77410;BME280;66481;51.332;22.804;2023-05-07T18:31:07;100732.69;;;3.72;89.98
77410;BME280;66481;51.332;22.804;2023-05-07T18:35:08;100731.41;;;3.57;90.42
77410;BME280;66481;51.332;22.804;2023-05-07T18:39:10;100743.00;;;3.48;90.22
77410;BME280;66481;51.332;22.804;2023-05-07T18:43:13;100751.91;;;3.41;90.55
77410;BME280;66481;51.332;22.804;2023-05-07T18:47:14;100757.66;;;3.21;91.23
77410;BME280;66481;51.332;22.804;2023-05-07T18:51:18;100752.66;;;3.13;91.64
77410;BME280;66481;51.332;22.804;2023-05-07T18:55:19;100754.19;;;3.20;91.39
77410;BME280;66481;51.332;22.804;2023-05-07T18:59:22;100757.88;;;3.13;91.68
77410;BME280;66481;51.332;22.804;2023-05-07T19:03:23;100770.28;;;3.05;92.27
77410;BME280;66481;51.332;22.804;2023-05-07T19:07:24;100754.94;;;2.91;92.55
77410;BME280;66481;51.332;22.804;2023-05-07T19:11:25;100748.56;;;2.67;93.78
77410;BME280;66481;51.332;22.804;2023-05-07T19:15:26;100756.44;;;2.66;94.25
77410;BME280;66481;51.332;22.804;2023-05-07T19:19:27;100755.97;;;2.50;94.48
77410;BME280;66481;51.332;22.804;2023-05-07T19:23:28;100757.53;;;2.18;95.20
77410;BME280;66481;51.332;22.804;2023-05-07T19:27:30;100759.84;;;2.32;95.39
77410;BME280;66481;51.332;22.804;2023-05-07T19:31:31;100759.56;;;2.05;95.11
77410;BME280;66481;51.332;22.804;2023-05-07T19:35:33;100765.13;;;1.90;95.86
77410;BME280;66481;51.332;22.804;2023-05-07T19:39:35;100776.34;;;1.93;96.57
77410;BME280;66481;51.332;22.804;2023-05-07T19:43:38;100773.06;;;1.83;96.06
77410;BME280;66481;51.332;22.804;2023-05-07T19:47:39;100776.00;;;1.68;96.77
77410;BME280;66481;51.332;22.804;2023-05-07T19:51:40;100773.44;;;1.65;97.23
77410;BME280;66481;51.332;22.804;2023-05-07T19:55:41;100778.53;;;1.71;98.22
77410;BME280;66481;51.332;22.804;2023-05-07T19:59:45;100772.09;;;1.45;97.61
77410;BME280;66481;51.332;22.804;2023-05-07T20:03:47;100764.38;;;1.39;98.48
77410;BME280;66481;51.332;22.804;2023-05-07T20:07:50;100777.13;;;1.55;99.04
77410;BME280;66481;51.332;22.804;2023-05-07T20:11:51;100775.56;;;1.46;99.12
77410;BME280;66481;51.332;22.804;2023-05-07T20:15:58;100780.63;;;1.54;99.39
77410;BME280;66481;51.332;22.804;2023-05-07T20:19:59;100783.38;;;1.46;99.92
77410;BME280;66481;51.332;22.804;2023-05-07T20:24:01;100795.38;;;1.55;99.60
77410;BME280;66481;51.332;22.804;2023-05-07T20:28:03;100792.00;;;1.49;99.51
77410;BME280;66481;51.332;22.804;2023-05-07T20:32:04;100797.50;;;1.34;99.28
77410;BME280;66481;51.332;22.804;2023-05-07T20:36:06;100800.16;;;1.31;98.86
77410;BME280;66481;51.332;22.804;2023-05-07T20:40:08;100808.16;;;1.22;98.72
77410;BME280;66481;51.332;22.804;2023-05-07T20:44:10;100811.81;;;1.11;99.61
77410;BME280;66481;51.332;22.804;2023-05-07T20:48:11;100823.31;;;0.97;100.00
77410;BME280;66481;51.332;22.804;2023-05-07T20:52:14;100814.06;;;0.79;99.71
77410;BME280;66481;51.332;22.804;2023-05-07T20:56:15;100823.69;;;0.75;100.00
77410;BME280;66481;51.332;22.804;2023-05-07T21:00:17;100832.34;;;0.77;100.00
77410;BME280;66481;51.332;22.804;2023-05-07T21:04:19;100828.91;;;0.73;100.00
77410;BME280;66481;51.332;22.804;2023-05-07T21:08:20;100824.56;;;0.74;100.00
77410;BME280;66481;51.332;22.804;2023-05-07T21:12:22;100826.25;;;0.78;100.00
77410;BME280;66481;51.332;22.804;2023-05-07T21:16:23;100841.00;;;0.78;100.00
77410;BME280;66481;51.332;22.804;2023-05-07T21:20:24;100834.78;;;0.86;100.00
77410;BME280;66481;51.332;22.804;2023-05-07T21:24:25;100843.63;;;0.76;100.00
77410;BME280;66481;51.332;22.804;2023-05-07T21:28:26;100842.94;;;0.65;100.00
77410;BME280;66481;51.332;22.804;2023-05-07T21:32:28;100848.44;;;0.43;100.00